Time;durP1;ratioP1;P1;durP2;ratioP2;P2;SDS_P1;SDS_P2;PMS_P1;PMS_P2;Temp;Humidity;BMP_temperature;BMP_pressure;BME280_temperature;BME280_humidity;BME280_pressure;Samples;Min_cycle;Max_cycle;Signal;HPM_P1;HPM_P2
2020/12/25 00:00:00;;;;;;;0.87;0.83;;;;;;;;;;5021901;28;20452;-86
2020/12/25 00:02:26;;;;;;;1.03;0.73;;;1.70;99.90;;;;;;5020597;28;20498;-87
2020/12/25 00:04:52;;;;;;;0.80;0.80;;;1.70;99.90;;;;;;5022585;28;20504;-88
2020/12/25 00:07:19;;;;;;;0.83;0.83;;;;;;;;;;5021712;28;20512;-85
2020/12/25 00:09:46;;;;;;;0.80;0.80;;;1.80;99.90;;;;;;5017596;28;20524;-86
2020/12/25 00:12:12;;;;;;;0.90;0.90;;;1.30;99.90;;;;;;5018791;28;20834;-85
2020/12/25 00:14:39;;;;;;;0.70;0.70;;;2.00;99.90;;;;;;5027770;28;20455;-87
2020/12/25 00:17:07;;;;;;;0.90;0.70;;;2.20;99.90;;;;;;5024203;28;20459;-85
2020/12/25 00:19:33;;;;;;;0.80;0.60;;;1.60;99.90;;;;;;5026836;28;20977;-86
2020/12/25 00:21:59;;;;;;;0.60;0.50;;;;;;;;;;5025606;28;20459;-86
2020/12/25 00:24:26;;;;;;;0.77;0.63;;;1.50;99.90;;;;;;5025306;28;20529;-85
2020/12/25 00:26:52;;;;;;;0.50;0.40;;;1.40;99.90;;;;;;5027327;28;20443;-86
2020/12/25 00:29:18;;;;;;;0.77;0.60;;;;;;;;;;5025648;28;20452;-85
2020/12/25 00:31:46;;;;;;;1.20;0.60;;;1.60;99.90;;;;;;5026597;28;20456;-86
2020/12/25 00:34:13;;;;;;;0.50;0.43;;;1.40;99.90;;;;;;5024736;28;20441;-85
2020/12/25 00:36:42;;;;;;;0.50;0.40;;;1.50;99.90;;;;;;5025882;28;20437;-87
2020/12/25 00:39:09;;;;;;;0.50;0.40;;;1.50;99.90;;;;;;5025011;28;20440;-87
2020/12/25 00:41:40;;;;;;;0.50;0.47;;;1.50;99.90;;;;;;5024287;28;20461;-87
2020/12/25 00:44:06;;;;;;;1.17;1.03;;;1.70;99.90;;;;;;5026367;28;20481;-87
2020/12/25 00:46:33;;;;;;;1.17;0.60;;;;;;;;;;5026097;28;20454;-86
2020/12/25 00:48:59;;;;;;;1.03;0.70;;;;;;;;;;5025430;28;20449;-86
2020/12/25 00:51:26;;;;;;;0.50;0.50;;;0.80;99.90;;;;;;5030059;28;20934;-87
2020/12/25 00:53:53;;;;;;;0.40;0.40;;;;;;;;;;5024445;28;20447;-85
2020/12/25 00:56:19;;;;;;;0.60;0.53;;;1.50;99.90;;;;;;5023940;28;20938;-86
2020/12/25 00:58:46;;;;;;;0.80;0.67;;;;;;;;;;5025799;28;20444;-86
2020/12/25 01:01:13;;;;;;;1.80;0.70;;;1.50;99.90;;;;;;5023315;28;20449;-86
2020/12/25 01:03:41;;;;;;;0.60;0.53;;;1.50;99.90;;;;;;5022729;28;20445;-87
2020/12/25 01:06:11;;;;;;;0.60;0.60;;;1.60;99.90;;;;;;5025922;28;20461;-86
2020/12/25 01:08:38;;;;;;;4.83;0.80;;;1.40;99.90;;;;;;5021293;28;20440;-86
2020/12/25 01:11:05;;;;;;;0.80;0.73;;;1.50;99.90;;;;;;5026503;28;20451;-87
2020/12/25 01:13:32;;;;;;;1.23;1.03;;;;;;;;;;5026294;28;20957;-86
2020/12/25 01:16:01;;;;;;;1.00;0.90;;;1.70;99.90;;;;;;5023529;28;20525;-87
2020/12/25 01:18:28;;;;;;;0.97;0.77;;;;;;;;;;5021769;28;20435;-86
2020/12/25 01:20:55;;;;;;;0.80;0.80;;;;;;;;;;5023643;28;20449;-87
2020/12/25 01:23:21;;;;;;;0.80;0.80;;;;;;;;;;5023557;28;20474;-88
2020/12/25 01:25:48;;;;;;;1.00;0.90;;;1.60;99.90;;;;;;5024401;28;20490;-86
2020/12/25 01:28:15;;;;;;;2.30;0.97;;;;;;;;;;5026613;28;20456;-86
2020/12/25 01:30:41;;;;;;;0.50;0.40;;;1.80;99.90;;;;;;5024124;28;20936;-85
2020/12/25 01:33:08;;;;;;;0.83;0.80;;;1.50;99.90;;;;;;5025488;28;20459;-89
2020/12/25 01:35:34;;;;;;;1.13;1.03;;;;;;;;;;5023853;28;20447;-87
2020/12/25 01:38:01;;;;;;;1.00;0.90;;;1.90;99.90;;;;;;5025231;28;20952;-88
2020/12/25 01:40:27;;;;;;;1.03;1.00;;;;;;;;;;5025346;28;20462;-89
2020/12/25 01:42:55;;;;;;;1.00;0.80;;;1.40;99.90;;;;;;5021616;28;20521;-86
2020/12/25 01:45:21;;;;;;;1.83;1.53;;;;;;;;;;5020196;28;20494;-87
2020/12/25 01:47:48;;;;;;;1.30;1.20;;;1.60;99.90;;;;;;5025407;28;20440;-86
2020/12/25 01:50:16;;;;;;;3.07;1.70;;;1.80;99.90;;;;;;5023648;28;20442;-87
2020/12/25 01:52:43;;;;;;;2.00;1.70;;;1.80;99.90;;;;;;5024319;28;20451;-88
2020/12/25 01:55:12;;;;;;;2.40;2.20;;;1.80;99.90;;;;;;5016273;28;20436;-87
2020/12/25 01:57:40;;;;;;;2.33;1.90;;;2.00;99.90;;;;;;5016438;28;20438;-87
2020/12/25 02:00:07;;;;;;;2.77;2.30;;;1.40;99.90;;;;;;5023767;28;20451;-88
2020/12/25 02:02:34;;;;;;;6.00;2.90;;;;;;;;;;5018422;28;20470;-87
2020/12/25 02:05:00;;;;;;;4.40;2.40;;;;;;;;;;5028803;28;21018;-87
2020/12/25 02:07:27;;;;;;;3.00;1.60;;;;;;;;;;5018798;28;20939;-85
2020/12/25 02:09:54;;;;;;;2.77;1.70;;;2.00;99.90;;;;;;5025539;28;20476;-87
2020/12/25 02:12:20;;;;;;;5.20;2.37;;;2.00;99.90;;;;;;5028116;28;20469;-87
2020/12/25 02:14:47;;;;;;;4.03;2.93;;;;;;;;;;5018910;28;20505;-87
2020/12/25 02:17:14;;;;;;;2.10;1.93;;;1.90;99.90;;;;;;5024886;28;20458;-87
2020/12/25 02:19:41;;;;;;;6.00;3.50;;;;;;;;;;5028810;28;20445;-87
2020/12/25 02:22:08;;;;;;;2.83;2.43;;;2.60;99.90;;;;;;5022988;28;20448;-86
2020/12/25 02:24:34;;;;;;;3.07;2.37;;;2.00;99.90;;;;;;5025642;28;20987;-88
2020/12/25 02:27:00;;;;;;;4.20;3.70;;;1.90;99.90;;;;;;5026497;28;20458;-88
2020/12/25 02:29:27;;;;;;;3.33;3.03;;;;;;;;;;5023913;28;20508;-87
2020/12/25 02:31:53;;;;;;;3.47;2.57;;;1.90;99.90;;;;;;5024062;28;20447;-86
2020/12/25 02:34:19;;;;;;;5.90;2.87;;;1.70;99.90;;;;;;5020309;28;20447;-87
2020/12/25 02:36:45;;;;;;;9.90;3.60;;;2.00;99.90;;;;;;5023964;28;20470;-87
2020/12/25 02:39:13;;;;;;;4.27;2.87;;;1.60;99.90;;;;;;5020068;28;21213;-88
2020/12/25 02:41:39;;;;;;;3.13;2.77;;;1.70;99.90;;;;;;5020525;28;20504;-86
2020/12/25 02:44:05;;;;;;;2.40;2.20;;;;;;;;;;5023488;28;20523;-86
2020/12/25 02:46:32;;;;;;;3.07;2.70;;;;;;;;;;5019282;28;20453;-87
2020/12/25 02:48:58;;;;;;;4.50;2.87;;;2.00;99.90;;;;;;5020243;28;20456;-86
2020/12/25 02:51:25;;;;;;;6.33;3.63;;;;;;;;;;5023605;28;20455;-86
2020/12/25 02:53:51;;;;;;;4.90;3.13;;;1.90;99.90;;;;;;5024481;28;20446;-86
2020/12/25 02:56:20;;;;;;;3.47;2.73;;;2.30;99.90;;;;;;5019858;28;20447;-87
2020/12/25 02:58:46;;;;;;;4.47;2.70;;;1.90;99.90;;;;;;5023208;28;20824;-85
2020/12/25 03:01:14;;;;;;;4.73;2.53;;;1.90;99.90;;;;;;5023208;28;20459;-86
2020/12/25 03:03:41;;;;;;;6.60;4.40;;;2.00;99.90;;;;;;5022782;28;20511;-86
2020/12/25 03:06:09;;;;;;;5.77;3.40;;;2.00;99.90;;;;;;5022751;28;20974;-87
2020/12/25 03:08:35;;;;;;;4.57;3.20;;;1.70;99.90;;;;;;5024095;28;20516;-88
2020/12/25 03:11:02;;;;;;;4.33;3.90;;;;;;;;;;5022430;28;20498;-88
2020/12/25 03:13:29;;;;;;;5.13;3.90;;;1.60;99.90;;;;;;5024114;28;20592;-86
2020/12/25 03:15:55;;;;;;;6.50;4.07;;;1.90;99.90;;;;;;5021102;28;20452;-86
2020/12/25 03:18:25;;;;;;;4.73;3.20;;;2.00;99.90;;;;;;5023611;28;20908;-87
2020/12/25 03:20:51;;;;;;;3.40;3.10;;;1.90;99.90;;;;;;5021561;28;20457;-86
2020/12/25 03:23:17;;;;;;;4.20;3.43;;;;;;;;;;5022033;28;20451;-89
2020/12/25 03:25:44;;;;;;;6.40;3.50;;;;;;;;;;5025474;28;20486;-87
2020/12/25 03:28:10;;;;;;;4.50;3.37;;;;;;;;;;5023470;28;20460;-87
2020/12/25 03:30:37;;;;;;;6.33;3.47;;;2.10;99.90;;;;;;5023396;28;20935;-86
2020/12/25 03:33:04;;;;;;;4.30;3.73;;;;;;;;;;5022807;28;20532;-87
2020/12/25 03:35:30;;;;;;;5.60;3.33;;;1.90;99.90;;;;;;5021232;28;20449;-87
2020/12/25 03:37:57;;;;;;;15.50;3.90;;;;;;;;;;5019342;28;20435;-86
2020/12/25 03:40:29;;;;;;;3.93;3.53;;;2.20;99.90;;;;;;5021165;28;20458;-87
2020/12/25 03:42:55;;;;;;;3.33;2.63;;;2.20;99.90;;;;;;5021187;28;20445;-86
2020/12/25 03:45:21;;;;;;;4.50;3.63;;;1.70;99.90;;;;;;5024629;28;20556;-87
2020/12/25 03:47:48;;;;;;;5.13;3.70;;;2.10;99.90;;;;;;5020749;28;20469;-87
2020/12/25 03:50:15;;;;;;;7.00;4.57;;;;;;;;;;5021224;28;20500;-88
2020/12/25 03:52:44;;;;;;;4.17;3.53;;;1.90;99.90;;;;;;5021793;28;20439;-87
2020/12/25 03:55:10;;;;;;;4.40;2.87;;;2.10;99.90;;;;;;5024363;28;20445;-87
2020/12/25 03:57:37;;;;;;;4.50;3.60;;;2.10;99.90;;;;;;5015474;28;20440;-86
2020/12/25 04:00:04;;;;;;;3.27;2.97;;;2.10;99.90;;;;;;5022289;28;20447;-86
2020/12/25 04:02:30;;;;;;;5.30;3.70;;;;;;;;;;5020777;28;20463;-87
2020/12/25 04:04:58;;;;;;;4.17;3.67;;;2.30;99.90;;;;;;5023244;28;20501;-87
2020/12/25 04:07:24;;;;;;;4.20;3.30;;;1.90;99.90;;;;;;5021160;28;20493;-86
2020/12/25 04:09:50;;;;;;;7.60;3.27;;;;;;;;;;5021038;28;20931;-86
2020/12/25 04:12:17;;;;;;;1.97;1.50;;;;;;;;;;5023477;28;20494;-86
2020/12/25 04:14:43;;;;;;;4.70;3.77;;;;;;;;;;5023523;28;20455;-86
2020/12/25 04:17:10;;;;;;;5.60;3.83;;;;;;;;;;5022062;28;20955;-87
2020/12/25 04:19:36;;;;;;;3.80;3.40;;;2.10;99.90;;;;;;5023801;28;20486;-87
2020/12/25 04:22:03;;;;;;;4.27;3.07;;;2.30;99.90;;;;;;5012698;28;20460;-86
2020/12/25 04:24:30;;;;;;;4.00;2.30;;;2.10;99.90;;;;;;5020682;28;20497;-88
2020/12/25 04:26:56;;;;;;;3.13;2.60;;;;;;;;;;5023970;28;20811;-86
2020/12/25 04:29:22;;;;;;;2.47;2.00;;;2.10;99.90;;;;;;5019927;28;20499;-86
2020/12/25 04:31:49;;;;;;;5.07;3.50;;;2.00;99.90;;;;;;5022074;28;20459;-86
2020/12/25 04:34:15;;;;;;;3.90;3.30;;;;;;;;;;5021450;28;20451;-86
2020/12/25 04:36:41;;;;;;;3.93;3.00;;;2.00;99.90;;;;;;5020114;28;20451;-87
2020/12/25 04:39:10;;;;;;;4.23;3.33;;;2.30;99.90;;;;;;5018007;28;20838;-86
2020/12/25 04:41:37;;;;;;;3.33;2.50;;;1.90;99.90;;;;;;5020676;28;20455;-86
2020/12/25 04:44:06;;;;;;;3.90;2.80;;;2.10;99.90;;;;;;5023229;28;20470;-86
2020/12/25 04:46:32;;;;;;;3.13;2.47;;;2.00;99.90;;;;;;5022007;28;21236;-86
2020/12/25 04:48:59;;;;;;;3.00;2.70;;;2.20;99.90;;;;;;5020698;28;20451;-88
2020/12/25 04:51:26;;;;;;;4.30;2.40;;;2.10;99.90;;;;;;5022128;28;20856;-86
2020/12/25 04:53:54;;;;;;;2.07;1.87;;;2.00;99.90;;;;;;5026825;28;20444;-86
2020/12/25 04:56:22;;;;;;;2.70;2.50;;;2.10;99.90;;;;;;5017962;28;20854;-85
2020/12/25 04:58:50;;;;;;;3.13;2.80;;;2.00;99.90;;;;;;5023405;28;20455;-87
2020/12/25 05:01:16;;;;;;;3.80;3.40;;;2.50;99.90;;;;;;5020899;28;20457;-86
2020/12/25 05:03:44;;;;;;;3.10;2.40;;;2.00;99.90;;;;;;5020248;28;20439;-88
2020/12/25 05:06:11;;;;;;;4.80;3.33;;;2.00;99.90;;;;;;5023759;28;20485;-89
2020/12/25 05:08:39;;;;;;;3.00;2.47;;;2.10;99.90;;;;;;5023989;28;20489;-86
2020/12/25 05:11:07;;;;;;;4.10;3.23;;;1.80;99.90;;;;;;5026412;28;20469;-86
2020/12/25 05:13:34;;;;;;;5.27;2.37;;;2.10;99.90;;;;;;5024074;28;20455;-86
2020/12/25 05:16:01;;;;;;;4.40;3.33;;;2.10;99.90;;;;;;5015060;28;20451;-86
2020/12/25 05:18:32;;;;;;;3.03;2.70;;;2.20;99.90;;;;;;5016217;28;20510;-88
2020/12/25 05:20:59;;;;;;;2.97;2.00;;;2.20;99.90;;;;;;5015901;28;20534;-87
2020/12/25 05:23:32;;;;;;;5.30;3.63;;;1.90;99.90;;;;;;5012800;28;20478;-85
2020/12/25 05:25:59;;;;;;;3.30;3.00;;;2.00;99.90;;;;;;5015802;28;20530;-86
2020/12/25 05:28:28;;;;;;;4.30;3.70;;;2.10;99.90;;;;;;5015797;28;20449;-87
2020/12/25 05:30:57;;;;;;;4.70;3.57;;;1.90;99.90;;;;;;5014525;28;20455;-86
2020/12/25 05:33:25;;;;;;;3.67;3.10;;;2.00;99.90;;;;;;5015911;28;20462;-88
2020/12/25 05:35:55;;;;;;;3.67;2.07;;;2.10;99.90;;;;;;5015758;28;20510;-87
2020/12/25 05:38:22;;;;;;;4.30;3.50;;;1.80;99.90;;;;;;5019282;28;20835;-87
2020/12/25 05:40:50;;;;;;;4.80;3.47;;;2.00;99.90;;;;;;5015692;28;20459;-87
2020/12/25 05:43:18;;;;;;;4.63;3.37;;;2.00;99.90;;;;;;5015609;28;20456;-88
2020/12/25 05:45:45;;;;;;;4.13;3.70;;;;;;;;;;5014553;28;20555;-85
2020/12/25 05:48:13;;;;;;;5.23;3.47;;;1.90;99.90;;;;;;5015357;28;20459;-86
2020/12/25 05:50:40;;;;;;;4.20;2.83;;;1.90;99.90;;;;;;5015525;28;20466;-87
2020/12/25 05:53:07;;;;;;;6.10;3.20;;;2.00;99.90;;;;;;5015499;28;20498;-87
2020/12/25 05:55:34;;;;;;;4.47;4.00;;;;;;;;;;5015326;28;20452;-87
2020/12/25 05:58:01;;;;;;;5.00;3.77;;;;;;;;;;5015337;28;20452;-87
2020/12/25 06:00:28;;;;;;;5.00;3.63;;;1.80;99.90;;;;;;5015505;28;20562;-86
2020/12/25 06:02:56;;;;;;;5.63;4.03;;;1.90;99.90;;;;;;5014149;28;20488;-88
2020/12/25 06:05:25;;;;;;;4.13;3.10;;;2.00;99.90;;;;;;5011756;28;20505;-87
2020/12/25 06:07:54;;;;;;;5.90;4.57;;;2.30;99.90;;;;;;5014925;28;20968;-86
2020/12/25 06:10:21;;;;;;;5.07;3.97;;;2.00;99.90;;;;;;5014512;28;20469;-85
2020/12/25 06:12:48;;;;;;;6.03;4.60;;;2.00;99.90;;;;;;5014889;28;20450;-86
2020/12/25 06:15:23;;;;;;;7.60;4.20;;;1.80;99.90;;;;;;5014937;28;20455;-88
2020/12/25 06:18:03;;;;;;;6.63;4.63;;;1.90;99.90;;;;;;5013908;28;20471;-85
2020/12/25 06:20:35;;;;;;;6.10;4.97;;;1.80;99.90;;;;;;5014893;28;20801;-87
2020/12/25 06:23:04;;;;;;;4.77;4.00;;;2.30;99.90;;;;;;5014699;28;21013;-86
2020/12/25 06:25:31;;;;;;;7.70;5.97;;;;;;;;;;5014786;28;20530;-86
2020/12/25 06:28:01;;;;;;;7.60;5.70;;;1.80;99.90;;;;;;5014756;28;20468;-86
2020/12/25 06:30:29;;;;;;;7.50;5.00;;;1.90;99.90;;;;;;5016938;28;20451;-85
2020/12/25 06:32:56;;;;;;;6.40;5.20;;;1.80;99.90;;;;;;5013905;28;20456;-86
2020/12/25 06:35:38;;;;;;;10.17;6.10;;;1.90;99.90;;;;;;5014814;28;20452;-87
2020/12/25 06:38:12;;;;;;;6.30;4.40;;;1.90;99.90;;;;;;5014526;28;20451;-86
2020/12/25 06:40:39;;;;;;;10.93;6.30;;;1.60;99.90;;;;;;5014404;28;20454;-85
2020/12/25 06:43:12;;;;;;;6.87;5.50;;;1.90;99.90;;;;;;5014286;28;20451;-87
2020/12/25 06:45:39;;;;;;;6.30;5.07;;;;;;;;;;5013256;28;20508;-87
2020/12/25 06:48:13;;;;;;;7.17;4.70;;;1.70;99.90;;;;;;5014394;28;20447;-87
2020/12/25 06:50:58;;;;;;;5.67;4.50;;;2.30;99.90;;;;;;5014264;28;20474;-86
2020/12/25 06:53:33;;;;;;;6.40;5.00;;;1.90;99.90;;;;;;5014257;28;20433;-86
2020/12/25 06:56:11;;;;;;;8.87;4.87;;;1.80;99.90;;;;;;5014416;28;20456;-87
2020/12/25 06:58:39;;;;;;;5.07;3.90;;;1.80;99.90;;;;;;5014219;28;20505;-86
2020/12/25 07:01:06;;;;;;;5.80;4.30;;;;;;;;;;5011098;28;20457;-86
2020/12/25 07:03:36;;;;;;;5.50;4.13;;;1.70;99.90;;;;;;5014266;28;20854;-86
2020/12/25 07:06:05;;;;;;;5.10;3.67;;;1.60;99.90;;;;;;5013914;28;20504;-86
2020/12/25 07:08:33;;;;;;;5.70;4.33;;;1.90;99.90;;;;;;5013961;28;20460;-87
2020/12/25 07:11:01;;;;;;;5.37;4.13;;;1.80;99.90;;;;;;5013692;28;20478;-87
2020/12/25 07:13:30;;;;;;;3.80;2.93;;;1.60;99.90;;;;;;5015365;28;20912;-85
2020/12/25 07:15:56;;;;;;;4.50;3.97;;;2.00;99.90;;;;;;5032247;28;20480;-85
2020/12/25 07:18:22;;;;;;;4.40;3.50;;;1.80;99.90;;;;;;5033323;28;20448;-84
2020/12/25 07:20:49;;;;;;;4.30;3.20;;;;;;;;;;5032554;28;20456;-85
2020/12/25 07:23:18;;;;;;;7.13;3.40;;;1.20;99.90;;;;;;5033303;28;20469;-87
2020/12/25 07:25:44;;;;;;;3.50;2.87;;;2.50;99.90;;;;;;5031012;28;20902;-86
2020/12/25 07:28:11;;;;;;;5.33;2.80;;;1.90;99.90;;;;;;5033312;28;20513;-85
2020/12/25 07:30:38;;;;;;;3.30;2.53;;;;;;;;;;5032388;28;20451;-85
2020/12/25 07:33:05;;;;;;;3.33;3.03;;;1.60;99.90;;;;;;5033362;28;20449;-86
2020/12/25 07:35:32;;;;;;;4.77;3.33;;;1.80;99.90;;;;;;5033217;28;20463;-86
2020/12/25 07:37:58;;;;;;;3.97;3.50;;;;;;;;;;5033299;28;20835;-86
2020/12/25 07:40:26;;;;;;;3.10;2.70;;;2.00;99.90;;;;;;5033211;28;20949;-85
2020/12/25 07:42:52;;;;;;;3.93;3.30;;;1.50;99.90;;;;;;5033123;28;20472;-85
2020/12/25 07:45:18;;;;;;;3.90;3.10;;;2.30;99.90;;;;;;5029886;28;20926;-85
2020/12/25 07:47:45;;;;;;;5.13;3.33;;;;;;;;;;5031957;28;20461;-86
2020/12/25 07:50:12;;;;;;;4.83;3.80;;;;;;;;;;5032897;28;20449;-86
2020/12/25 07:52:38;;;;;;;5.67;3.93;;;1.70;99.90;;;;;;5032910;28;20450;-86
2020/12/25 07:55:04;;;;;;;4.40;3.67;;;1.60;99.90;;;;;;5033068;28;20454;-85
2020/12/25 07:57:32;;;;;;;6.10;4.60;;;1.50;99.90;;;;;;5031110;28;20518;-87
2020/12/25 07:59:58;;;;;;;3.90;3.33;;;;;;;;;;5032069;28;20481;-86
2020/12/25 08:02:24;;;;;;;4.37;3.97;;;1.60;99.90;;;;;;5031491;28;20479;-85
2020/12/25 08:04:51;;;;;;;4.97;3.90;;;1.50;99.90;;;;;;5020901;28;20486;-85
2020/12/25 08:07:18;;;;;;;4.63;3.60;;;1.80;99.90;;;;;;5020822;28;20456;-87
2020/12/25 08:09:49;;;;;;;4.70;3.80;;;1.60;99.90;;;;;;5021924;28;20457;-86
2020/12/25 08:12:17;;;;;;;3.03;2.73;;;1.60;99.90;;;;;;5019064;28;20934;-87
2020/12/25 08:14:44;;;;;;;3.03;2.73;;;1.50;99.90;;;;;;5016635;28;20451;-86
2020/12/25 08:17:13;;;;;;;3.10;2.80;;;1.40;99.90;;;;;;5014252;28;20446;-84
2020/12/25 08:19:40;;;;;;;2.80;2.53;;;1.80;99.90;;;;;;5012502;28;20462;-83
2020/12/25 08:22:08;;;;;;;3.33;2.93;;;1.60;99.90;;;;;;5015663;28;20783;-86
2020/12/25 08:24:35;;;;;;;4.03;3.30;;;;;;;;;;5013039;28;20450;-83
2020/12/25 08:27:02;;;;;;;6.03;4.70;;;1.60;99.90;;;;;;5012947;28;20815;-86
2020/12/25 08:29:30;;;;;;;5.17;4.03;;;1.70;99.90;;;;;;5012776;28;20463;-86
2020/12/25 08:32:06;;;;;;;5.63;4.67;;;1.20;99.90;;;;;;5012240;28;20462;-85
2020/12/25 08:34:32;;;;;;;6.13;4.50;;;1.50;99.90;;;;;;5016860;28;20456;-85
2020/12/25 08:36:59;;;;;;;8.07;4.73;;;1.50;99.90;;;;;;5016769;28;20452;-85
2020/12/25 08:39:26;;;;;;;7.53;5.30;;;1.90;99.90;;;;;;5025683;28;20457;-85
2020/12/25 08:41:53;;;;;;;9.73;6.17;;;1.80;99.90;;;;;;5036303;28;20457;-88
2020/12/25 08:44:20;;;;;;;11.57;6.90;;;;;;;;;;5036396;28;20449;-86
2020/12/25 08:46:47;;;;;;;9.70;7.53;;;1.90;99.90;;;;;;5033025;28;20555;-86
2020/12/25 08:49:25;;;;;;;10.80;7.20;;;1.10;99.90;;;;;;5035775;28;20448;-86
2020/12/25 08:51:52;;;;;;;9.47;7.07;;;;;;;;;;5035614;28;20457;-86
2020/12/25 08:54:25;;;;;;;11.60;7.87;;;2.00;99.90;;;;;;5029204;28;20453;-88
2020/12/25 08:56:55;;;;;;;18.43;8.67;;;1.80;99.90;;;;;;5027677;28;20450;-89
2020/12/25 08:59:21;;;;;;;11.50;7.70;;;;;;;;;;5033173;28;20497;-90
2020/12/25 09:01:49;;;;;;;14.90;9.27;;;1.80;99.90;;;;;;5037648;28;20450;-95
2020/12/25 09:04:18;;;;;;;14.80;8.67;;;2.20;99.90;;;;;;5034590;28;20483;-92
2020/12/25 09:06:45;;;;;;;12.10;8.30;;;;;;;;;;5036307;28;20547;-89
2020/12/25 09:09:11;;;;;;;11.10;8.17;;;2.00;99.90;;;;;;5036531;28;20479;-94
2020/12/25 09:11:37;;;;;;;12.90;8.20;;;2.10;99.90;;;;;;5038661;28;20451;-89
2020/12/25 09:14:04;;;;;;;12.00;7.80;;;2.20;99.90;;;;;;5041356;28;20453;-91
2020/12/25 09:16:30;;;;;;;11.83;8.60;;;2.20;99.90;;;;;;5041286;28;20515;-88
2020/12/25 09:18:59;;;;;;;15.00;8.60;;;;;;;;;;5038184;28;20447;-93
2020/12/25 09:21:28;;;;;;;14.00;8.50;;;2.10;99.90;;;;;;5032117;28;20461;-87
2020/12/25 09:23:54;;;;;;;14.63;8.50;;;2.40;99.90;;;;;;5016157;28;20456;-85
2020/12/25 09:26:21;;;;;;;11.70;8.13;;;;;;;;;;5016342;28;20541;-88
2020/12/25 09:28:47;;;;;;;15.70;8.93;;;2.50;99.90;;;;;;5018656;28;20456;-89
2020/12/25 09:31:13;;;;;;;13.00;8.00;;;;;;;;;;5015373;28;20471;-88
2020/12/25 09:33:41;;;;;;;15.50;9.90;;;2.60;99.90;;;;;;5015950;28;20944;-86
2020/12/25 09:36:08;;;;;;;13.47;8.50;;;2.40;99.90;;;;;;5019534;28;20852;-88
2020/12/25 09:38:37;;;;;;;12.60;8.50;;;2.30;99.90;;;;;;5015763;28;20451;-87
2020/12/25 09:41:04;;;;;;;14.20;8.33;;;;;;;;;;5011630;28;20473;-89
2020/12/25 09:43:32;;;;;;;15.60;8.40;;;;;;;;;;5015162;28;20443;-90
2020/12/25 09:45:58;;;;;;;14.03;8.57;;;2.50;99.90;;;;;;5014462;28;20504;-88
2020/12/25 09:48:26;;;;;;;11.43;7.77;;;2.40;99.90;;;;;;5015458;28;20446;-88
2020/12/25 09:50:53;;;;;;;12.23;8.50;;;;;;;;;;5015771;28;21078;-89
2020/12/25 09:53:19;;;;;;;9.90;7.33;;;;;;;;;;5016077;28;20456;-89
2020/12/25 09:55:48;;;;;;;13.57;9.60;;;2.60;99.90;;;;;;5015873;28;20456;-87
2020/12/25 09:58:15;;;;;;;12.77;8.53;;;2.60;99.90;;;;;;5015735;28;20451;-88
2020/12/25 10:00:41;;;;;;;14.33;9.80;;;2.20;99.90;;;;;;5015926;28;20451;-86
2020/12/25 10:03:08;;;;;;;10.80;8.00;;;;;;;;;;5016020;28;20456;-86
2020/12/25 10:05:34;;;;;;;14.60;9.50;;;;;;;;;;5015601;28;20507;-91
2020/12/25 10:08:01;;;;;;;12.13;7.97;;;;;;;;;;5015545;28;20994;-88
2020/12/25 10:10:28;;;;;;;15.23;8.37;;;2.60;99.90;;;;;;5013306;28;20471;-88
2020/12/25 10:12:55;;;;;;;14.00;7.97;;;3.40;99.90;;;;;;5015328;28;20459;-87
2020/12/25 10:15:22;;;;;;;13.60;7.30;;;;;;;;;;5015060;28;20451;-89
2020/12/25 10:17:48;;;;;;;10.63;7.97;;;2.00;99.90;;;;;;5014101;28;20942;-87
2020/12/25 10:20:15;;;;;;;14.00;8.03;;;3.10;99.90;;;;;;5012152;28;20514;-88
2020/12/25 10:22:41;;;;;;;13.37;7.93;;;;;;;;;;5014828;28;20443;-90
2020/12/25 10:25:08;;;;;;;15.50;8.40;;;3.20;99.90;;;;;;5024203;28;20532;-87
2020/12/25 10:27:34;;;;;;;14.60;7.57;;;3.20;99.90;;;;;;5034724;28;20451;-89
2020/12/25 10:30:01;;;;;;;11.10;7.73;;;3.00;99.90;;;;;;5034716;28;20448;-88
2020/12/25 10:32:27;;;;;;;12.50;8.17;;;3.00;99.90;;;;;;5033212;28;20832;-88
2020/12/25 10:34:53;;;;;;;10.97;7.87;;;2.80;99.90;;;;;;5034500;28;20452;-90
2020/12/25 10:37:20;;;;;;;10.43;6.90;;;;;;;;;;5026732;28;20460;-88
2020/12/25 10:39:47;;;;;;;8.50;6.27;;;3.00;99.90;;;;;;5034247;28;20445;-88
2020/12/25 10:42:14;;;;;;;10.70;7.90;;;2.90;99.90;;;;;;5034377;28;20458;-88
2020/12/25 10:44:40;;;;;;;9.80;7.07;;;2.80;99.90;;;;;;5034343;28;20455;-88
2020/12/25 10:47:07;;;;;;;10.60;7.50;;;2.80;99.90;;;;;;5031351;28;20456;-86
2020/12/25 10:49:34;;;;;;;10.10;7.10;;;3.00;99.90;;;;;;5034548;28;20478;-87
2020/12/25 10:52:00;;;;;;;8.33;6.43;;;2.70;99.90;;;;;;5034220;28;20510;-87
2020/12/25 10:54:26;;;;;;;8.20;6.37;;;3.00;99.90;;;;;;5034058;28;20453;-87
2020/12/25 10:56:52;;;;;;;9.63;6.90;;;2.90;99.90;;;;;;5034014;28;20451;-87
2020/12/25 10:59:19;;;;;;;11.10;7.60;;;2.80;99.90;;;;;;5033399;28;20468;-86
2020/12/25 11:01:48;;;;;;;10.90;7.40;;;;;;;;;;5032614;28;20516;-88
2020/12/25 11:04:15;;;;;;;9.43;6.90;;;2.60;99.90;;;;;;5033918;28;20541;-89
2020/12/25 11:06:42;;;;;;;7.23;5.23;;;3.30;99.90;;;;;;5028566;28;21002;-87
2020/12/25 11:09:09;;;;;;;9.23;5.77;;;3.10;99.90;;;;;;5033951;28;20479;-88
2020/12/25 11:11:37;;;;;;;8.80;6.57;;;3.00;99.90;;;;;;5028941;28;20459;-88
2020/12/25 11:14:04;;;;;;;9.57;6.50;;;2.80;99.90;;;;;;5014029;28;20812;-91
2020/12/25 11:16:34;;;;;;;6.30;4.80;;;3.30;99.90;;;;;;5012960;28;20452;-88
2020/12/25 11:19:01;;;;;;;9.17;5.17;;;2.60;99.90;;;;;;5013974;28;20445;-88
2020/12/25 11:21:29;;;;;;;6.80;4.90;;;3.10;99.90;;;;;;5014067;28;20457;-88
2020/12/25 11:23:57;;;;;;;7.70;5.63;;;2.90;99.90;;;;;;5011047;28;20449;-87
2020/12/25 11:26:24;;;;;;;8.03;5.57;;;2.90;99.90;;;;;;5017260;28;20892;-88
2020/12/25 11:28:52;;;;;;;9.00;6.13;;;2.80;99.90;;;;;;5014143;28;20966;-89
2020/12/25 11:31:19;;;;;;;8.37;5.50;;;3.50;99.90;;;;;;5012639;28;20454;-88
2020/12/25 11:33:45;;;;;;;10.77;5.90;;;;;;;;;;5014147;28;20460;-88
2020/12/25 11:36:13;;;;;;;7.90;5.27;;;2.80;99.90;;;;;;5013688;28;20449;-88
2020/12/25 11:38:40;;;;;;;10.60;4.70;;;2.70;99.90;;;;;;5016361;28;20456;-89
2020/12/25 11:41:08;;;;;;;9.73;5.93;;;2.90;99.90;;;;;;5013456;28;20455;-89
2020/12/25 11:43:36;;;;;;;8.00;6.17;;;3.40;99.90;;;;;;5013933;28;20932;-90
2020/12/25 11:46:02;;;;;;;9.67;4.83;;;;;;;;;;5012610;28;20861;-89
2020/12/25 11:48:29;;;;;;;7.30;5.63;;;2.40;99.90;;;;;;5009596;28;20543;-88
2020/12/25 11:50:55;;;;;;;7.10;4.90;;;;;;;;;;5013370;28;20452;-90
2020/12/25 11:53:22;;;;;;;7.50;5.90;;;2.50;99.90;;;;;;5014596;28;20444;-88
2020/12/25 11:55:49;;;;;;;8.40;6.03;;;2.80;99.90;;;;;;5005056;28;20744;-88
2020/12/25 11:58:18;;;;;;;9.70;5.77;;;3.40;99.90;;;;;;4994302;28;20452;-87
2020/12/25 12:00:45;;;;;;;7.50;5.60;;;;;;;;;;4997293;28;20503;-88
2020/12/25 12:03:16;;;;;;;6.60;4.90;;;4.00;99.90;;;;;;5012642;28;20450;-88
2020/12/25 12:05:43;;;;;;;6.43;4.97;;;4.50;99.90;;;;;;5015626;28;20500;-89
2020/12/25 12:08:09;;;;;;;8.70;5.03;;;4.50;99.90;;;;;;5014742;28;20472;-87
2020/12/25 12:10:36;;;;;;;7.23;5.20;;;1.80;99.90;;;;;;5017178;28;20451;-87
2020/12/25 12:13:04;;;;;;;7.50;4.97;;;3.50;99.90;;;;;;5015927;28;20479;-88
2020/12/25 12:15:34;;;;;;;6.53;4.57;;;3.40;99.90;;;;;;5023554;28;20449;-87
2020/12/25 12:18:00;;;;;;;7.70;4.77;;;3.60;99.90;;;;;;5024553;28;20448;-90
2020/12/25 12:20:27;;;;;;;8.83;5.10;;;3.30;99.90;;;;;;5028031;28;20450;-86
2020/12/25 12:22:53;;;;;;;6.70;5.00;;;;;;;;;;5025091;28;20444;-84
2020/12/25 12:25:19;;;;;;;5.87;3.97;;;3.30;99.90;;;;;;5029491;28;20498;-85
2020/12/25 12:27:46;;;;;;;5.47;4.13;;;;;;;;;;5031982;28;20448;-88
2020/12/25 12:30:13;;;;;;;5.70;4.10;;;3.30;99.90;;;;;;5026374;28;20450;-86
2020/12/25 12:32:40;;;;;;;7.30;5.17;;;;;;;;;;5018437;28;20484;-88
2020/12/25 12:35:06;;;;;;;6.17;4.90;;;;;;;;;;5020887;28;20462;-88
2020/12/25 12:37:32;;;;;;;4.40;3.53;;;3.10;99.90;;;;;;5024451;28;20456;-91
2020/12/25 12:39:59;;;;;;;5.53;4.30;;;3.00;99.90;;;;;;5024474;28;20480;-94
2020/12/25 12:42:25;;;;;;;5.30;3.80;;;;;;;;;;5029272;28;20467;-93
2020/12/25 12:44:52;;;;;;;4.90;3.70;;;;;;;;;;5029885;28;20417;-94
2020/12/25 12:47:19;;;;;;;6.00;4.03;;;2.50;99.90;;;;;;5027831;28;20447;-93
2020/12/25 12:49:46;;;;;;;5.80;3.80;;;;;;;;;;5028317;28;20467;-93
2020/12/25 12:52:12;;;;;;;6.90;4.33;;;2.50;99.90;;;;;;5062308;23;20483;-93
2020/12/25 12:54:39;;;;;;;4.67;3.53;;;;;;;;;;5046828;28;20449;-94
2020/12/25 12:57:06;;;;;;;4.27;3.30;;;;;;;;;;5044707;28;20590;-92
2020/12/25 12:59:32;;;;;;;6.73;4.10;;;;;;;;;;5037520;28;20524;-89
2020/12/25 13:01:59;;;;;;;4.97;3.53;;;;;;;;;;5042459;28;20448;-93
2020/12/25 13:04:28;;;;;;;3.90;3.20;;;2.30;99.90;;;;;;5045322;28;20502;-91
2020/12/25 13:06:54;;;;;;;7.03;3.70;;;;;;;;;;5039966;28;20501;-89
2020/12/25 13:09:21;;;;;;;5.30;3.97;;;;;;;;;;5040080;28;20443;-89
2020/12/25 13:11:47;;;;;;;3.83;3.20;;;;;;;;;;5040181;28;20458;-89
2020/12/25 13:14:14;;;;;;;6.03;3.47;;;;;;;;;;5033963;28;20443;-91
2020/12/25 13:16:41;;;;;;;6.93;4.13;;;2.30;99.90;;;;;;5039847;28;20542;-90
2020/12/25 13:19:09;;;;;;;4.43;3.17;;;2.40;99.90;;;;;;5028796;28;20447;-91
2020/12/25 13:21:36;;;;;;;7.00;4.10;;;2.40;99.90;;;;;;5023213;28;20959;-87